Time;durP1;ratioP1;P1;durP2;ratioP2;P2;SDS_P1;SDS_P2;PMS_P1;PMS_P2;Temp;Humidity;BMP_temperature;BMP_pressure;BME280_temperature;BME280_humidity;BME280_pressure;Samples;Min_cycle;Max_cycle;Signal;HPM_P1;HPM_P2
2022/06/13 00:00:23;;;;;;;;;;;;;;;23.40;48.38;101207.19;5034454;28;6209;-63
2022/06/13 00:02:49;;;;;;;;;;;;;;;23.40;48.78;101212.22;5058886;28;4303;-63
2022/06/13 00:05:16;;;;;;;;;;;;;;;23.41;48.65;101213.72;5033256;28;4264;-63
2022/06/13 00:07:42;;;;;;;;;;;;;;;23.40;48.68;101210.06;5033855;28;4165;-63
2022/06/13 00:10:09;;;;;;;;;;;;;;;23.40;48.56;101201.41;5029635;28;4543;-63
2022/06/13 00:12:35;;;;;;;;;;;;;;;23.41;48.69;101196.38;5028068;28;4248;-63
2022/06/13 00:15:02;;;;;;;;;;;;;;;23.39;48.52;101205.72;5033653;28;4252;-63
2022/06/13 00:17:28;;;;;;;;;;;;;;;23.38;48.84;101204.22;5034733;28;4944;-63
2022/06/13 00:19:56;;;;;;;;;;;;;;;23.40;48.68;101200.66;5037941;28;4160;-63
2022/06/13 00:22:22;;;;;;;;;;;;;;;23.39;48.76;101205.72;5039056;28;4050;-63
2022/06/13 00:24:49;;;;;;;;;;;;;;;23.40;48.63;101203.56;5059437;28;4063;-63
2022/06/13 00:27:15;;;;;;;;;;;;;;;23.40;48.58;101207.19;5057403;28;4167;-62
2022/06/13 00:29:47;;;;;;;;;;;;;;;23.40;48.94;101200.66;5060172;28;4203;-63
2022/06/13 00:32:14;;;;;;;;;;;;;;;23.39;48.92;101199.94;5057488;28;4217;-63
2022/06/13 00:34:40;;;;;;;;;;;;;;;23.40;48.66;101186.22;5057904;28;4173;-63
2022/06/13 00:37:06;;;;;;;;;;;;;;;23.39;48.97;101191.25;5049206;28;4116;-63
2022/06/13 00:39:33;;;;;;;;;;;;;;;23.40;48.73;101189.09;5060640;28;5455;-63
2022/06/13 00:41:59;;;;;;;;;;;;;;;23.39;48.87;101190.53;5056340;28;4190;-63
2022/06/13 00:44:27;;;;;;;;;;;;;;;23.38;49.04;101195.53;5055009;28;5256;-63
2022/06/13 00:46:53;;;;;;;;;;;;;;;23.38;49.05;101192.66;5059957;28;4184;-63
2022/06/13 00:49:21;;;;;;;;;;;;;;;23.39;49.05;101194.16;5051946;28;5292;-62
2022/06/13 00:52:11;;;;;;;;;;;;;;;23.39;49.05;101191.25;5057903;28;4242;-63
2022/06/13 00:54:37;;;;;;;;;;;;;;;23.40;48.75;101189.84;5054064;28;4136;-63
2022/06/13 00:57:04;;;;;;;;;;;;;;;23.40;48.79;101197.78;5052016;28;4216;-63
2022/06/13 00:59:31;;;;;;;;;;;;;;;23.39;48.84;101199.94;5056768;28;5222;-63
2022/06/13 01:01:57;;;;;;;;;;;;;;;23.40;49.14;101195.63;5054648;28;5474;-62
2022/06/13 01:04:24;;;;;;;;;;;;;;;23.39;49.15;101194.16;5058261;28;4249;-63
2022/06/13 01:06:50;;;;;;;;;;;;;;;23.39;49.05;101191.25;5056020;28;4067;-63
2022/06/13 01:09:17;;;;;;;;;;;;;;;23.39;48.89;101204.97;5053841;28;4158;-62
2022/06/13 01:11:45;;;;;;;;;;;;;;;23.39;48.87;101194.16;5056835;28;4154;-63
2022/06/13 01:14:16;;;;;;;;;;;;;;;23.39;48.84;101194.16;5059157;28;4464;-63
2022/06/13 01:17:01;;;;;;;;;;;;;;;23.39;49.17;101205.72;5053065;28;4098;-63
2022/06/13 01:19:52;;;;;;;;;;;;;;;23.39;49.17;101202.81;5050103;28;4143;-63
2022/06/13 01:22:29;;;;;;;;;;;;;;;23.40;49.04;101203.56;5051257;28;4308;-63
2022/06/13 01:25:14;;;;;;;;;;;;;;;23.39;49.27;101207.84;5057618;28;4038;-63
2022/06/13 01:27:40;;;;;;;;;;;;;;;23.38;48.99;101192.66;5054070;28;4286;-63
2022/06/13 01:30:11;;;;;;;;;;;;;;;23.38;48.96;101198.44;5051364;28;4234;-62
2022/06/13 01:32:37;;;;;;;;;;;;;;;23.39;49.20;101196.31;5054650;28;4430;-62
2022/06/13 01:35:09;;;;;;;;;;;;;;;23.38;49.02;101198.44;5054075;28;4142;-63
2022/06/13 01:37:54;;;;;;;;;;;;;;;23.39;49.22;101193.41;5056890;28;4005;-63
2022/06/13 01:40:30;;;;;;;;;;;;;;;23.39;49.31;101184.75;5053861;28;4114;-62
2022/06/13 01:43:11;;;;;;;;;;;;;;;23.38;48.87;101183.97;5054992;28;4100;-62
2022/06/13 01:45:39;;;;;;;;;;;;;;;23.39;49.21;101182.59;5055355;28;4019;-62
2022/06/13 01:48:07;;;;;;;;;;;;;;;23.38;49.08;101181.09;5053897;28;4094;-63
2022/06/13 01:50:37;;;;;;;;;;;;;;;23.37;49.02;101191.16;5046466;28;4600;-63
2022/06/13 01:53:23;;;;;;;;;;;;;;;23.37;49.08;101191.16;5053721;28;4021;-63
2022/06/13 01:55:50;;;;;;;;;;;;;;;23.36;49.05;101189.66;5054057;28;4634;-63
2022/06/13 01:58:20;;;;;;;;;;;;;;;23.36;49.07;101207.00;5056739;28;4485;-63
2022/06/13 02:00:48;;;;;;;;;;;;;;;23.35;49.37;101211.31;5057139;28;4531;-63
2022/06/13 02:03:19;;;;;;;;;;;;;;;23.36;49.29;101207.00;5054718;28;4283;-63
2022/06/13 02:05:48;;;;;;;;;;;;;;;23.35;49.41;101199.75;5056434;28;4413;-63
2022/06/13 02:08:16;;;;;;;;;;;;;;;23.35;49.17;101199.75;5054809;28;4197;-62
2022/06/13 02:10:50;;;;;;;;;;;;;;;23.34;49.50;101209.84;5056370;28;4547;-63
2022/06/13 02:13:19;;;;;;;;;;;;;;;23.35;49.33;101217.09;5052867;28;4617;-63
2022/06/13 02:15:47;;;;;;;;;;;;;;;23.35;49.46;101227.91;5055432;28;4207;-63
2022/06/13 02:18:14;;;;;;;;;;;;;;;23.34;49.26;101221.41;5055306;28;4207;-63
2022/06/13 02:20:41;;;;;;;;;;;;;;;23.34;49.19;101217.75;5050560;28;4268;-62
2022/06/13 02:23:08;;;;;;;;;;;;;;;23.34;49.23;101220.63;5051496;28;5486;-63
2022/06/13 02:25:48;;;;;;;;;;;;;;;23.33;49.42;101219.16;5054961;28;4371;-62
2022/06/13 02:28:19;;;;;;;;;;;;;;;23.34;49.19;101232.97;5055335;28;4173;-62
2022/06/13 02:30:47;;;;;;;;;;;;;;;23.33;49.20;101224.94;5059109;28;5398;-62
2022/06/13 02:33:16;;;;;;;;;;;;;;;23.33;49.34;101219.91;5049598;28;4291;-62
2022/06/13 02:35:46;;;;;;;;;;;;;;;23.32;49.17;101223.44;5052949;28;4207;-62
2022/06/13 02:38:45;;;;;;;;;;;;;;;23.31;49.48;101222.72;5061014;28;4509;-63
2022/06/13 02:41:13;;;;;;;;;;;;;;;23.32;49.27;101211.88;5054762;28;4199;-62
2022/06/13 02:43:41;;;;;;;;;;;;;;;23.30;49.43;101209.69;5054204;28;4178;-63
2022/06/13 02:46:11;;;;;;;;;;;;;;;23.29;49.33;101202.41;5056535;28;4073;-63
2022/06/13 02:48:39;;;;;;;;;;;;;;;23.30;49.30;101218.34;5053974;28;4276;-63
2022/06/13 02:51:24;;;;;;;;;;;;;;;23.30;49.38;101218.34;5053731;28;4108;-63
2022/06/13 02:54:10;;;;;;;;;;;;;;;23.30;49.35;101221.25;5054213;28;4154;-63
2022/06/13 02:57:23;;;;;;;;;;;;;;;23.30;49.66;101214.72;5046458;28;4127;-63
2022/06/13 02:59:38;;;;;;;;;;;;;;;23.29;49.45;101213.97;5051540;28;4187;-62
2022/06/13 03:02:05;;;;;;;;;;;;;;;23.30;49.56;101214.72;5053062;28;5342;-63
2022/06/13 03:04:35;;;;;;;;;;;;;;;23.30;49.59;101220.50;5054804;28;4262;-63
2022/06/13 03:07:11;;;;;;;;;;;;;;;23.29;49.33;101211.06;5053460;28;5486;-63
2022/06/13 03:09:41;;;;;;;;;;;;;;;23.29;49.70;101213.22;5051122;28;6022;-63
2022/06/13 03:12:09;;;;;;;;;;;;;;;23.29;49.41;101213.22;5053238;28;4368;-63
2022/06/13 03:14:35;;;;;;;;;;;;;;;23.30;49.37;101226.28;5050974;28;4204;-63
2022/06/13 03:17:01;;;;;;;;;;;;;;;23.29;49.74;101219.00;5054169;28;4253;-62
2022/06/13 03:19:31;;;;;;;;;;;;;;;23.29;49.48;101221.88;5051232;28;3994;-63
2022/06/13 03:22:05;;;;;;;;;;;;;;;23.28;49.47;101224.03;5054984;28;4077;-61
2022/06/13 03:24:31;;;;;;;;;;;;;;;23.27;49.62;101228.31;5048986;28;4175;-62
2022/06/13 03:26:58;;;;;;;;;;;;;;;23.26;49.83;101226.84;5054999;28;4213;-62
2022/06/13 03:29:26;;;;;;;;;;;;;;;23.27;49.79;101222.53;5054253;28;4209;-62
2022/06/13 03:31:54;;;;;;;;;;;;;;;23.27;49.50;101218.91;5054279;28;4141;-62
2022/06/13 03:34:21;;;;;;;;;;;;;;;23.27;49.67;101216.75;5050450;28;4498;-62
2022/06/13 03:36:57;;;;;;;;;;;;;;;23.27;49.55;101221.81;5054033;28;4238;-62
2022/06/13 03:39:36;;;;;;;;;;;;;;;23.26;49.54;101226.84;5052297;28;4401;-62
2022/06/13 03:42:13;;;;;;;;;;;;;;;23.26;49.51;101232.63;5054874;28;4139;-62
2022/06/13 03:44:42;;;;;;;;;;;;;;;23.26;49.73;101232.63;5053347;28;5123;-62
2022/06/13 03:47:35;;;;;;;;;;;;;;;23.26;49.55;101229.00;5053634;28;4301;-62
2022/06/13 03:50:12;;;;;;;;;;;;;;;23.25;49.69;101231.16;5053404;28;4166;-62
2022/06/13 03:52:39;;;;;;;;;;;;;;;23.25;49.50;101242.72;5054806;28;4143;-62
2022/06/13 03:55:07;;;;;;;;;;;;;;;23.24;49.47;101241.22;5051873;28;4839;-62
2022/06/13 03:57:34;;;;;;;;;;;;;;;23.25;49.72;101244.84;5059413;28;4213;-62
2022/06/13 04:00:01;;;;;;;;;;;;;;;23.25;49.53;101244.84;5064176;28;4166;-62
2022/06/13 04:02:30;;;;;;;;;;;;;;;23.25;49.50;101247.72;5057225;28;4162;-62
2022/06/13 04:04:56;;;;;;;;;;;;;;;23.25;49.53;101247.72;5064784;28;4205;-62
2022/06/13 04:07:23;;;;;;;;;;;;;;;23.25;49.74;101239.06;5058714;28;4001;-62
2022/06/13 04:09:57;;;;;;;;;;;;;;;23.25;49.54;101241.94;5058630;28;4196;-62
2022/06/13 04:12:56;;;;;;;;;;;;;;;23.25;49.59;101236.94;5056103;28;4073;-62
2022/06/13 04:15:25;;;;;;;;;;;;;;;23.25;49.50;101239.81;5023053;28;4263;-62
2022/06/13 04:18:03;;;;;;;;;;;;;;;23.25;49.49;101236.16;5065098;28;4078;-62
2022/06/13 04:20:40;;;;;;;;;;;;;;;23.24;49.37;101247.00;5052933;28;5449;-62
2022/06/13 04:23:06;;;;;;;;;;;;;;;23.25;49.59;101242.72;5054289;28;5164;-62
2022/06/13 04:25:37;;;;;;;;;;;;;;;23.25;49.74;101241.94;5053240;28;4299;-62
2022/06/13 04:28:05;;;;;;;;;;;;;;;23.25;49.36;101247.72;5051956;28;4206;-62
2022/06/13 04:30:32;;;;;;;;;;;;;;;23.25;49.27;101253.50;5057967;28;4136;-62
2022/06/13 04:33:01;;;;;;;;;;;;;;;23.24;49.36;101252.03;5057078;28;4186;-62
2022/06/13 04:35:28;;;;;;;;;;;;;;;23.25;49.51;101254.28;5056163;28;5128;-62
2022/06/13 04:37:54;;;;;;;;;;;;;;;23.25;49.31;101251.38;5058326;28;4272;-62
2022/06/13 04:40:21;;;;;;;;;;;;;;;23.25;49.69;101251.38;5052928;28;4173;-62
2022/06/13 04:42:48;;;;;;;;;;;;;;;23.23;49.45;101242.63;5055976;28;4043;-62
2022/06/13 04:45:18;;;;;;;;;;;;;;;23.24;49.24;101252.03;5054473;28;6166;-61
2022/06/13 04:47:45;;;;;;;;;;;;;;;23.23;49.22;101248.41;5053963;28;5334;-62
2022/06/13 04:50:13;;;;;;;;;;;;;;;23.22;49.32;101249.78;5057030;28;5296;-62
2022/06/13 04:52:39;;;;;;;;;;;;;;;23.23;49.42;101254.19;5054877;28;4017;-59
2022/06/13 04:55:06;;;;;;;;;;;;;;;23.20;49.59;101258.38;5052203;28;4214;-65
2022/06/13 04:57:33;;;;;;;;;;;;;;;22.99;49.48;101269.09;5049988;28;5308;-63
2022/06/13 04:59:59;;;;;;;;;;;;;;;23.04;49.15;101263.47;5052235;28;5959;-65
2022/06/13 05:02:33;;;;;;;;;;;;;;;23.11;52.49;101273.88;5045106;28;5347;-62
2022/06/13 05:04:59;;;;;;;;;;;;;;;23.27;50.77;101265.88;5051286;28;4832;-62
2022/06/13 05:07:25;;;;;;;;;;;;;;;23.25;51.25;101265.06;5053510;28;4062;-59
2022/06/13 05:09:52;;;;;;;;;;;;;;;23.28;52.22;101267.38;5052714;28;4166;-63
2022/06/13 05:12:20;;;;;;;;;;;;;;;23.19;48.98;101280.00;5046862;28;4001;-63
2022/06/13 05:14:51;;;;;;;;;;;;;;;23.16;49.65;101272.69;5052414;28;4070;-60
2022/06/13 05:17:28;;;;;;;;;;;;;;;23.17;49.18;101263.34;5050785;28;4361;-63
2022/06/13 05:20:09;;;;;;;;;;;;;;;23.14;49.04;101266.81;5058133;28;4312;-69
2022/06/13 05:22:43;;;;;;;;;;;;;;;23.12;48.68;101273.22;5049155;28;4151;-68
2022/06/13 05:25:16;;;;;;;;;;;;;;;23.10;48.38;101275.31;5054263;28;4738;-68
2022/06/13 05:27:43;;;;;;;;;;;;;;;23.08;48.36;101278.09;5056068;28;4047;-68
2022/06/13 05:30:11;;;;;;;;;;;;;;;23.06;48.31;101289.56;5053960;28;5357;-68
2022/06/13 05:32:37;;;;;;;;;;;;;;;23.05;47.96;101282.31;5042099;28;4108;-68
2022/06/13 05:35:03;;;;;;;;;;;;;;;23.04;47.48;101280.81;5054880;28;4129;-67
2022/06/13 05:37:30;;;;;;;;;;;;;;;23.03;47.18;101280.06;5057524;28;4074;-68
2022/06/13 05:39:57;;;;;;;;;;;;;;;23.04;47.50;101280.81;5055303;28;4542;-67
2022/06/13 05:42:25;;;;;;;;;;;;;;;23.04;47.42;101286.59;5053666;28;4108;-65
2022/06/13 05:44:52;;;;;;;;;;;;;;;23.03;46.95;101294.53;5055049;28;4145;-65
2022/06/13 05:47:18;;;;;;;;;;;;;;;22.99;47.13;101295.06;5052965;28;4262;-63
2022/06/13 05:49:45;;;;;;;;;;;;;;;23.03;46.87;101302.44;5057876;28;4576;-64
2022/06/13 05:52:11;;;;;;;;;;;;;;;23.05;47.14;101299.66;5046931;28;4217;-69
2022/06/13 05:54:38;;;;;;;;;;;;;;;23.26;52.62;101307.75;5055870;28;4348;-64
2022/06/13 05:57:04;;;;;;;;;;;;;;;23.54;50.37;101304.53;5051690;28;4132;-63
2022/06/13 05:59:30;;;;;;;;;;;;;;;23.70;48.65;101310.22;5066863;28;4223;-63
2022/06/13 06:01:57;;;;;;;;;;;;;;;23.74;47.08;101305.38;5053114;28;4190;-64
2022/06/13 06:04:23;;;;;;;;;;;;;;;23.74;46.21;101302.47;5058106;28;3992;-65
2022/06/13 06:06:49;;;;;;;;;;;;;;;23.78;46.07;101313.47;5054547;28;4203;-65
2022/06/13 06:09:16;;;;;;;;;;;;;;;23.78;45.61;101305.53;5054919;28;4066;-65
2022/06/13 06:11:42;;;;;;;;;;;;;;;23.79;45.49;101298.34;5050912;28;4274;-68
2022/06/13 06:14:09;;;;;;;;;;;;;;;24.10;45.04;101313.22;5055240;28;4348;-65
2022/06/13 06:16:35;;;;;;;;;;;;;;;24.14;44.39;101311.22;5052602;28;4445;-64
2022/06/13 06:19:01;;;;;;;;;;;;;;;24.15;44.20;101306.94;5054707;28;5450;-64
2022/06/13 06:21:28;;;;;;;;;;;;;;;24.15;44.80;101301.16;5051138;28;4388;-62
2022/06/13 06:23:54;;;;;;;;;;;;;;;24.20;44.01;101305.69;5057363;28;4217;-62
2022/06/13 06:26:25;;;;;;;;;;;;;;;24.22;44.21;101305.75;5055846;28;4520;-64
2022/06/13 06:28:51;;;;;;;;;;;;;;;24.23;43.54;101304.38;5056870;28;4153;-64
2022/06/13 06:31:19;;;;;;;;;;;;;;;24.24;43.16;101305.09;5052699;28;5217;-66
2022/06/13 06:33:45;;;;;;;;;;;;;;;24.33;42.72;101311.94;5053989;28;4269;-64
2022/06/13 06:36:15;;;;;;;;;;;;;;;24.20;42.66;101308.56;5055720;28;4157;-62
2022/06/13 06:38:41;;;;;;;;;;;;;;;24.03;42.71;101315.16;5051816;28;4957;-62
2022/06/13 06:41:07;;;;;;;;;;;;;;;24.29;42.79;101306.00;5056769;28;4257;-62
2022/06/13 06:43:34;;;;;;;;;;;;;;;24.33;42.96;101300.38;5051059;28;4168;-62
2022/06/13 06:46:00;;;;;;;;;;;;;;;24.29;42.68;101294.41;5053483;28;4094;-64
2022/06/13 06:48:28;;;;;;;;;;;;;;;24.25;42.27;101277.63;5054909;28;4221;-60
2022/06/13 06:50:54;;;;;;;;;;;;;;;24.09;42.16;101277.03;5050978;28;4168;-60
2022/06/13 06:53:22;;;;;;;;;;;;;;;24.35;42.39;101274.38;5050723;28;4174;-64
2022/06/13 07:01:24;;;;;;;;;;;;;;;23.79;41.63;101280.25;5051590;28;5269;-62
2022/06/13 07:03:50;;;;;;;;;;;;;;;23.67;41.55;101274.72;5053995;28;4245;-65
2022/06/13 07:06:17;;;;;;;;;;;;;;;23.66;41.10;101279.00;5053622;28;4165;-61
2022/06/13 07:08:43;;;;;;;;;;;;;;;23.59;41.15;101280.16;5050016;28;4301;-62
2022/06/13 07:14:02;;;;;;;;;;;;;;;23.51;41.40;101305.88;5052075;28;6615;-62
2022/06/13 07:16:28;;;;;;;;;;;;;;;23.48;40.64;101299.25;5053902;28;4220;-61
2022/06/13 07:18:55;;;;;;;;;;;;;;;23.44;40.57;101292.56;5054766;28;4361;-67
2022/06/13 07:21:21;;;;;;;;;;;;;;;23.43;40.66;101291.81;5051695;28;4180;-61
2022/06/13 07:23:48;;;;;;;;;;;;;;;23.51;39.90;101289.25;5052448;28;4234;-63
2022/06/13 07:26:14;;;;;;;;;;;;;;;23.55;39.58;101297.38;5054398;28;5195;-62
2022/06/13 07:28:40;;;;;;;;;;;;;;;23.55;39.11;101291.59;5051132;28;4134;-62
2022/06/13 07:31:08;;;;;;;;;;;;;;;23.56;38.81;101299.56;5050277;28;4243;-62
2022/06/13 07:33:35;;;;;;;;;;;;;;;23.57;38.74;101297.41;5050497;28;4244;-63
2022/06/13 07:36:01;;;;;;;;;;;;;;;23.53;38.82;101305.94;5052723;28;4157;-63
2022/06/13 07:38:27;;;;;;;;;;;;;;;23.50;38.62;101296.47;5053744;28;4044;-63
2022/06/13 07:40:54;;;;;;;;;;;;;;;23.45;38.92;101300.56;5052526;28;4154;-65
2022/06/13 07:43:26;;;;;;;;;;;;;;;23.47;38.95;101302.81;5050943;28;4042;-62
2022/06/13 07:45:52;;;;;;;;;;;;;;;23.47;38.99;101297.75;5050691;28;5476;-64
2022/06/13 07:48:24;;;;;;;;;;;;;;;23.45;39.28;101305.63;5055833;28;4201;-64
2022/06/13 07:50:51;;;;;;;;;;;;;;;23.44;39.41;101301.25;5050583;28;4274;-63
2022/06/13 07:53:17;;;;;;;;;;;;;;;23.44;39.44;101304.88;5055369;28;5224;-63
2022/06/13 07:56:04;;;;;;;;;;;;;;;23.44;39.23;101309.91;5054472;28;4190;-63
2022/06/13 07:58:31;;;;;;;;;;;;;;;23.36;39.79;101299.50;5052966;28;5224;-64
2022/06/13 08:00:58;;;;;;;;;;;;;;;23.40;39.57;101308.31;5052028;28;4374;-64
2022/06/13 08:03:25;;;;;;;;;;;;;;;23.46;39.75;101295.56;5052386;28;4274;-61
2022/06/13 08:05:52;;;;;;;;;;;;;;;23.42;39.80;101302.63;5056029;28;5450;-62
2022/06/13 08:08:18;;;;;;;;;;;;;;;23.42;39.63;101302.63;5054250;28;4215;-61
2022/06/13 08:10:45;;;;;;;;;;;;;;;23.33;39.02;101305.84;5050899;28;4202;-64
2022/06/13 08:13:14;;;;;;;;;;;;;;;23.36;38.75;101305.28;5048037;28;4510;-63
2022/06/13 08:15:41;;;;;;;;;;;;;;;23.36;38.64;101311.03;5052814;28;4171;-64
2022/06/13 08:18:07;;;;;;;;;;;;;;;23.35;38.99;101303.78;5055144;28;4232;-64
2022/06/13 08:20:34;;;;;;;;;;;;;;;23.26;38.81;101301.22;5051309;28;4173;-61
2022/06/13 08:23:00;;;;;;;;;;;;;;;23.19;38.81;101298.09;5051801;28;4562;-56
2022/06/13 08:25:30;;;;;;;;;;;;;;;23.05;39.66;101305.44;5053343;28;4236;-58
2022/06/13 08:27:56;;;;;;;;;;;;;;;23.01;39.07;101308.88;5046772;28;5532;-61
2022/06/13 08:30:23;;;;;;;;;;;;;;;22.98;38.65;101299.34;5047201;28;4253;-60
2022/06/13 08:32:49;;;;;;;;;;;;;;;23.02;38.88;101300.94;5041128;28;4197;-59
2022/06/13 08:35:16;;;;;;;;;;;;;;;23.03;39.03;101299.56;5052725;28;5281;-59
2022/06/13 08:37:42;;;;;;;;;;;;;;;23.05;39.38;101299.66;5052053;28;5269;-59
2022/06/13 08:40:09;;;;;;;;;;;;;;;23.06;39.43;101309.78;5055329;28;4721;-59
2022/06/13 08:42:36;;;;;;;;;;;;;;;23.07;39.15;101317.06;5052618;28;4078;-59
2022/06/13 08:45:17;;;;;;;;;;;;;;;23.07;39.19;101308.41;5055572;28;5335;-62
2022/06/13 08:47:44;;;;;;;;;;;;;;;23.07;39.61;101314.19;5057979;28;4153;-61
2022/06/13 08:50:13;;;;;;;;;;;;;;;23.06;39.69;101319.19;5052720;28;4196;-61
2022/06/13 08:52:44;;;;;;;;;;;;;;;23.05;39.36;101317.72;5046624;28;4174;-62
2022/06/13 08:55:13;;;;;;;;;;;;;;;23.06;39.72;101318.44;5053708;28;4165;-61
2022/06/13 08:57:51;;;;;;;;;;;;;;;23.05;40.92;101314.81;5054231;28;4228;-59
2022/06/13 09:00:19;;;;;;;;;;;;;;;23.03;40.86;101320.50;5054132;28;4462;-58
2022/06/13 09:02:49;;;;;;;;;;;;;;;23.03;40.52;101322.66;5051981;28;5028;-59
2022/06/13 09:05:20;;;;;;;;;;;;;;;23.02;39.79;101306.72;5056628;28;4169;-59
2022/06/13 09:07:53;;;;;;;;;;;;;;;23.00;39.53;101311.03;5051244;28;4158;-58
2022/06/13 09:10:46;;;;;;;;;;;;;;;22.98;39.42;101313.78;5053625;28;4284;-59
2022/06/13 09:13:12;;;;;;;;;;;;;;;22.96;40.55;101318.75;5046978;28;4061;-63
2022/06/13 09:15:48;;;;;;;;;;;;;;;23.09;39.77;101320.00;5050633;28;4184;-63
2022/06/13 09:18:24;;;;;;;;;;;;;;;23.18;39.36;101313.19;5055580;28;4131;-62
2022/06/13 09:21:01;;;;;;;;;;;;;;;23.21;39.37;101318.41;5049951;28;4055;-63
2022/06/13 09:23:36;;;;;;;;;;;;;;;23.23;38.90;101314.84;5050204;28;4167;-63
2022/06/13 09:26:10;;;;;;;;;;;;;;;23.23;38.75;101311.97;5053096;28;4515;-61
2022/06/13 09:28:45;;;;;;;;;;;;;;;23.22;38.35;101313.34;5055964;28;4110;-62
2022/06/13 09:31:21;;;;;;;;;;;;;;;23.21;38.40;101297.44;5052990;28;4330;-61
2022/06/13 09:33:51;;;;;;;;;;;;;;;23.19;38.93;101298.09;5042425;28;4173;-59
2022/06/13 09:36:29;;;;;;;;;;;;;;;23.24;38.64;101295.38;5046927;28;4216;-64
2022/06/13 09:38:57;;;;;;;;;;;;;;;23.23;38.83;101300.41;5055781;28;4248;-67
2022/06/13 09:41:34;;;;;;;;;;;;;;;23.22;38.42;101290.25;5053081;28;4069;-63
2022/06/13 09:44:03;;;;;;;;;;;;;;;23.22;38.38;101293.13;5050837;28;4360;-62
2022/06/13 09:47:08;;;;;;;;;;;;;;;23.25;38.31;101294.72;5051016;28;5257;-63
2022/06/13 09:49:36;;;;;;;;;;;;;;;23.25;38.39;101288.94;4995953;28;4122;-64
2022/06/13 09:52:06;;;;;;;;;;;;;;;23.24;38.00;101293.22;5054165;28;4170;-63
2022/06/13 09:54:44;;;;;;;;;;;;;;;23.25;38.02;101306.28;5049318;28;4086;-64
2022/06/13 09:57:13;;;;;;;;;;;;;;;23.25;37.54;101299.72;5051618;28;5365;-64
2022/06/13 09:59:59;;;;;;;;;;;;;;;23.23;37.56;101285.19;5051151;28;4241;-65
2022/06/13 10:02:28;;;;;;;;;;;;;;;23.19;37.38;101292.31;5051651;28;4084;-61
2022/06/13 10:05:07;;;;;;;;;;;;;;;23.20;37.16;101293.03;5052044;28;4012;-61
2022/06/13 10:07:35;;;;;;;;;;;;;;;23.20;37.33;101288.03;5055992;28;4473;-62
2022/06/13 10:10:04;;;;;;;;;;;;;;;23.20;37.24;101275.72;5052851;28;4053;-65
2022/06/13 10:12:50;;;;;;;;;;;;;;;23.21;36.45;101280.09;5042745;28;4251;-63
2022/06/13 10:15:36;;;;;;;;;;;;;;;23.16;36.16;101269.78;5051211;28;4230;-62
2022/06/13 10:18:09;;;;;;;;;;;;;;;23.09;36.59;101271.69;5051562;28;4564;-63
2022/06/13 10:20:43;;;;;;;;;;;;;;;23.15;36.97;101269.03;5056130;28;4132;-65
2022/06/13 10:23:29;;;;;;;;;;;;;;;23.13;36.46;101273.97;5043527;28;4305;-61
2022/06/13 10:26:18;;;;;;;;;;;;;;;23.16;36.20;101269.78;5051860;28;3974;-61
2022/06/13 10:28:49;;;;;;;;;;;;;;;23.15;36.77;101259.63;5015765;28;5608;-62
2022/06/13 10:31:22;;;;;;;;;;;;;;;23.15;36.48;101259.63;5044942;28;4020;-59
2022/06/13 10:33:52;;;;;;;;;;;;;;;23.20;36.86;101264.16;5048447;28;4235;-60
2022/06/13 10:36:37;;;;;;;;;;;;;;;23.21;36.91;101259.88;5056293;28;4360;-60
2022/06/13 10:39:10;;;;;;;;;;;;;;;23.19;36.17;101259.78;5054281;28;4087;-59
2022/06/13 10:41:37;;;;;;;;;;;;;;;23.15;35.95;101256.72;5054385;28;5234;-59
2022/06/13 10:44:05;;;;;;;;;;;;;;;23.13;35.92;101260.25;5051593;28;5359;-60
2022/06/13 10:46:31;;;;;;;;;;;;;;;23.17;35.98;101260.44;5054027;28;5515;-60
2022/06/13 10:49:11;;;;;;;;;;;;;;;23.21;36.11;101265.66;5052920;28;5242;-60
2022/06/13 10:51:38;;;;;;;;;;;;;;;23.22;36.27;101244.00;5043354;28;4491;-59
2022/06/13 10:54:09;;;;;;;;;;;;;;;23.20;36.19;101253.34;5051849;28;4202;-59
2022/06/13 10:56:40;;;;;;;;;;;;;;;23.19;36.18;101262.69;5049505;28;4129;-60
2022/06/13 10:59:06;;;;;;;;;;;;;;;23.24;36.23;101246.25;5051350;28;4336;-60
2022/06/13 11:01:32;;;;;;;;;;;;;;;23.25;35.70;101254.28;5052176;28;4264;-62
2022/06/13 11:03:59;;;;;;;;;;;;;;;23.30;36.16;101250.13;5049795;28;5429;-60
2022/06/13 11:06:31;;;;;;;;;;;;;;;23.29;36.10;101248.63;5050634;28;4155;-63
2022/06/13 11:08:58;;;;;;;;;;;;;;;23.29;35.81;101245.75;5051353;28;4492;-62
2022/06/13 11:11:28;;;;;;;;;;;;;;;23.26;35.40;101249.97;5046873;28;4027;-62
2022/06/13 11:13:56;;;;;;;;;;;;;;;23.32;35.61;101253.09;5050362;28;4133;-60
2022/06/13 11:24:58;;;;;;;;;;;;;;;23.28;36.63;101260.88;5028095;28;4169;-65
2022/06/13 11:27:40;;;;;;;;;;;;;;;23.37;36.29;101269.19;5049413;28;6355;-65
2022/06/13 11:30:25;;;;;;;;;;;;;;;23.42;36.37;101255.66;5053670;28;5270;-66
2022/06/13 11:32:59;;;;;;;;;;;;;;;23.42;36.35;101259.28;5050450;28;4135;-64
2022/06/13 11:35:32;;;;;;;;;;;;;;;23.44;36.37;101257.91;5036875;28;5403;-65
2022/06/13 11:38:12;;;;;;;;;;;;;;;23.44;36.33;101260.78;5047270;28;4213;-62
2022/06/13 11:40:39;;;;;;;;;;;;;;;23.50;36.79;101256.00;5052842;28;5286;-61
2022/06/13 11:43:07;;;;;;;;;;;;;;;23.48;36.61;101258.03;5050179;28;4171;-64
2022/06/13 11:45:34;;;;;;;;;;;;;;;23.45;36.20;101250.69;5051159;28;4690;-63
2022/06/13 11:48:00;;;;;;;;;;;;;;;23.47;36.36;101262.34;5047077;28;4194;-61
2022/06/13 11:50:27;;;;;;;;;;;;;;;23.46;36.71;101266.66;5054689;28;5213;-62
2022/06/13 11:55:51;;;;;;;;;;;;;;;23.49;36.76;101276.88;5045017;28;4238;-63
2022/06/13 11:58:19;;;;;;;;;;;;;;;23.49;36.99;101282.66;5044531;28;5464;-63
2022/06/13 12:01:08;;;;;;;;;;;;;;;23.50;36.73;101295.69;5052612;28;4309;-62
2022/06/13 12:03:34;;;;;;;;;;;;;;;23.38;36.81;101316.91;5050027;28;4142;-64
2022/06/13 12:06:08;;;;;;;;;;;;;;;23.39;37.43;101312.63;5053148;28;4138;-63
2022/06/13 12:08:35;;;;;;;;;;;;;;;23.56;37.56;101310.41;5051561;28;4070;-62
2022/06/13 12:11:03;;;;;;;;;;;;;;;23.56;36.93;101310.41;5050637;28;4203;-63
2022/06/13 12:13:30;;;;;;;;;;;;;;;23.53;36.91;101306.69;5052398;28;5255;-68
2022/06/13 12:15:59;;;;;;;;;;;;;;;23.52;37.08;101308.06;5053332;28;4164;-69
2022/06/13 12:18:31;;;;;;;;;;;;;;;23.42;36.65;101316.34;5050672;28;5552;-67
2022/06/13 12:21:03;;;;;;;;;;;;;;;23.28;36.70;101316.50;5055342;28;4138;-68
2022/06/13 12:23:32;;;;;;;;;;;;;;;23.21;37.10;101320.53;5054826;28;4220;-67
2022/06/13 12:26:11;;;;;;;;;;;;;;;23.23;37.76;101314.84;5055631;28;4259;-67
2022/06/13 12:28:52;;;;;;;;;;;;;;;23.37;38.02;101318.34;5055717;28;5366;-67
2022/06/13 12:31:32;;;;;;;;;;;;;;;23.44;37.28;101328.00;5055253;28;4446;-67
2022/06/13 12:34:17;;;;;;;;;;;;;;;23.45;37.48;101326.56;5059602;28;5488;-68
2022/06/13 12:36:46;;;;;;;;;;;;;;;23.63;38.11;101323.69;5056665;28;4188;-68
2022/06/13 12:39:36;;;;;;;;;;;;;;;23.82;37.49;101325.19;5057650;28;4145;-68
2022/06/13 12:42:05;;;;;;;;;;;;;;;23.93;37.71;101329.22;5048003;28;4204;-67
2022/06/13 12:44:37;;;;;;;;;;;;;;;23.96;37.56;101327.88;5058346;28;4226;-66
2022/06/13 12:47:12;;;;;;;;;;;;;;;23.83;37.07;101321.63;5043745;28;4225;-67
2022/06/13 12:49:49;;;;;;;;;;;;;;;23.72;37.35;101322.63;5048108;28;4546;-66
2022/06/13 12:52:15;;;;;;;;;;;;;;;23.70;37.46;101324.69;5055501;28;4165;-67
2022/06/13 12:54:45;;;;;;;;;;;;;;;23.67;37.34;101320.97;5053847;28;4167;-67
2022/06/13 12:57:18;;;;;;;;;;;;;;;23.60;37.40;101333.69;5053221;28;4175;-62
2022/06/13 12:59:44;;;;;;;;;;;;;;;23.59;37.26;101324.28;5054701;28;4229;-63
2022/06/13 13:02:11;;;;;;;;;;;;;;;23.63;37.10;101326.59;5050021;28;4344;-68
2022/06/13 13:04:40;;;;;;;;;;;;;;;23.66;37.35;101342.59;5053736;28;4134;-62
2022/06/13 13:07:22;;;;;;;;;;;;;;;23.66;37.26;101336.81;5059975;28;4217;-62
2022/06/13 13:09:51;;;;;;;;;;;;;;;23.66;37.50;101342.59;5052749;28;5113;-64
2022/06/13 13:12:20;;;;;;;;;;;;;;;23.65;37.62;101323.78;5050680;28;4181;-64
2022/06/13 13:15:11;;;;;;;;;;;;;;;23.70;37.73;101333.34;5045017;28;4079;-65
2022/06/13 13:17:50;;;;;;;;;;;;;;;23.76;37.89;101334.38;5051501;28;4189;-65
2022/06/13 13:20:33;;;;;;;;;;;;;;;23.82;38.16;101331.72;5055685;28;4183;-64
2022/06/13 13:23:22;;;;;;;;;;;;;;;23.71;38.34;101335.59;5051910;28;4285;-64
2022/06/13 13:26:01;;;;;;;;;;;;;;;23.85;38.23;101334.72;5052298;28;4293;-66